This is the latest recevied weather packets stored in our database for station/object JM1YTT-13. If no packets are shown the sender has not sent any weather packets the latest 10 day(s).
| Time | Temp. | Humidity | Pressure | Rain* | Wind** | Luminosity | Snow |
|---|---|---|---|---|---|---|---|
| 1788581563 | 24.44° C | 85% | 1010.5 hPa | 0 mm | - | - | - |
| 1788579763 | 24.44° C | 88% | 1010.6 hPa | 0 mm | - | - | - |
| 1788577963 | 23.33° C | 92% | 1010.8 hPa | 0 mm | - | - | - |
| 1788576163 | 22.22° C | 96% | 1011.1 hPa | 0 mm | - | - | - |
| 1788574363 | 21.11° C | 96% | 1011.4 hPa | 0 mm | - | - | - |
| 1788572563 | 21.11° C | 96% | 1011.6 hPa | 0 mm | - | - | - |
| 1788570763 | 21.11° C | 96% | 1011.6 hPa | 0 mm | - | - | - |
| 1788568963 | 21.11° C | 97% | 1011.6 hPa | 0 mm | - | - | - |
| 1788567163 | 20.56° C | 97% | 1011.4 hPa | 0 mm | - | - | - |
| 1788565363 | 20° C | 98% | 1010.6 hPa | 0 mm | - | - | - |
| 1788563563 | 19.44° C | 100% | 1009.7 hPa | 0 mm | - | - | - |
| 1788561763 | 19.44° C | 100% | 1009.7 hPa | 0 mm | - | - | - |
| 1788559963 | 19.44° C | 100% | 1009.7 hPa | 0 mm | - | - | - |
| 1788558163 | 19.44° C | 100% | 1009.7 hPa | 0 mm | - | - | - |
| 1788556363 | 19.44° C | 100% | 1009.7 hPa | 0 mm | - | - | - |
| 1788554563 | 19.44° C | 100% | 1009.7 hPa | 0 mm | - | - | - |
| 1788552763 | 19.44° C | 100% | 1009.7 hPa | 0 mm | - | - | - |
| 1788550963 | 19.44° C | 100% | 1009.7 hPa | 0 mm | - | - | - |
| 1788549163 | 19.44° C | 100% | 1009.7 hPa | 0 mm | - | - | - |
| 1788547363 | 19.44° C | 100% | 1009.7 hPa | 0 mm | - | - | - |
| 1788545563 | 19.44° C | 100% | 1009.5 hPa | 0 mm | - | - | - |
| 1788543763 | 20° C | 97% | 1009.8 hPa | 0 mm | - | - | - |
| 1788541963 | 20° C | 97% | 1010.4 hPa | 0 mm | - | - | - |
| 1788540163 | 19.44° C | 96% | 1009.7 hPa | 0 mm | - | - | - |
| 1788538363 | 20° C | 96% | 1009.7 hPa | 0 mm | - | - | - |
* Rain latest hour (hover to see other rain measurements)
** Current wind speed in m/s (hover to see current wind gust speed)